createdAt,value
2022-10-18T00:00:07.530Z,15.03
2022-10-18T00:02:34.056Z,15.02
2022-10-18T00:05:00.732Z,15.02
2022-10-18T00:07:27.284Z,15.01
2022-10-18T00:09:53.692Z,14.97
2022-10-18T00:12:20.090Z,15.03
2022-10-18T00:14:50.481Z,15.02
2022-10-18T00:17:16.971Z,15.00
2022-10-18T00:19:43.465Z,14.98
2022-10-18T00:22:09.882Z,14.94
2022-10-18T00:24:36.242Z,14.94
2022-10-18T00:27:02.648Z,14.86
2022-10-18T00:29:29.018Z,14.86
2022-10-18T00:31:55.416Z,14.89
2022-10-18T00:34:21.792Z,14.94
2022-10-18T00:36:48.315Z,14.93
2022-10-18T00:39:17.830Z,14.95
2022-10-18T00:41:44.757Z,14.90
2022-10-18T00:44:11.065Z,14.95
2022-10-18T00:46:45.305Z,14.93
2022-10-18T00:49:16.221Z,14.92
2022-10-18T00:51:46.744Z,14.93
2022-10-18T00:54:15.048Z,14.91
2022-10-18T00:56:44.672Z,14.86
2022-10-18T00:59:13.816Z,14.83
2022-10-18T01:01:40.298Z,14.80
2022-10-18T01:04:06.667Z,14.83
2022-10-18T01:06:41.699Z,14.83
2022-10-18T01:09:26.990Z,14.80
2022-10-18T01:12:28.895Z,14.84
2022-10-18T01:15:13.316Z,14.83
2022-10-18T01:17:49.209Z,14.82
2022-10-18T01:20:53.638Z,14.82
2022-10-18T01:23:32.108Z,14.76
2022-10-18T01:26:32.243Z,14.77
2022-10-18T01:29:25.481Z,14.79
2022-10-18T01:31:59.619Z,14.78
2022-10-18T01:34:30.442Z,14.71
2022-10-18T01:36:58.650Z,14.72
2022-10-18T01:39:29.705Z,14.82
2022-10-18T01:41:59.548Z,14.79
2022-10-18T01:44:29.352Z,14.75
2022-10-18T01:46:57.887Z,14.76
2022-10-18T01:49:25.124Z,14.75
2022-10-18T01:51:51.644Z,14.77
2022-10-18T01:54:26.585Z,14.74
2022-10-18T01:57:06.503Z,14.74
2022-10-18T02:00:01.831Z,14.68
2022-10-18T02:02:49.145Z,14.75
2022-10-18T02:05:25.029Z,14.82
2022-10-18T02:08:22.897Z,14.84
2022-10-18T02:10:55.716Z,14.82
2022-10-18T02:13:25.720Z,14.80
2022-10-18T02:15:58.612Z,14.68
2022-10-18T02:18:32.362Z,14.71
2022-10-18T02:21:01.762Z,14.69
2022-10-18T02:23:28.264Z,14.69
2022-10-18T02:25:55.203Z,14.65
2022-10-18T02:28:22.041Z,14.64
2022-10-18T02:30:58.662Z,14.60
2022-10-18T02:33:37.377Z,14.62
2022-10-18T02:36:10.411Z,14.61
2022-10-18T02:38:38.507Z,14.60
2022-10-18T02:41:05.030Z,14.61
2022-10-18T02:43:31.593Z,14.56
2022-10-18T02:45:58.009Z,14.55
2022-10-18T02:48:24.438Z,14.54
2022-10-18T02:50:50.792Z,14.52
2022-10-18T02:53:17.190Z,14.51
2022-10-18T02:55:43.637Z,14.44
2022-10-18T02:58:10.030Z,14.45
2022-10-18T03:00:36.438Z,14.37
2022-10-18T03:03:02.870Z,14.38
2022-10-18T03:05:29.264Z,14.37
2022-10-18T03:07:58.740Z,14.39
2022-10-18T03:10:25.124Z,14.45
2022-10-18T03:12:51.482Z,14.40
2022-10-18T03:15:17.844Z,14.35
2022-10-18T03:17:44.186Z,14.28
2022-10-18T03:20:11.021Z,14.34
2022-10-18T03:22:37.378Z,14.42
2022-10-18T03:25:03.931Z,14.36
2022-10-18T03:27:30.627Z,14.34
2022-10-18T03:29:57.235Z,14.26
2022-10-18T03:32:23.623Z,14.22
2022-10-18T03:34:49.959Z,14.26
2022-10-18T03:37:16.326Z,14.29
2022-10-18T03:39:42.719Z,14.22
2022-10-18T03:42:09.092Z,14.18
2022-10-18T03:44:35.434Z,14.15
2022-10-18T03:47:01.830Z,14.19
2022-10-18T03:49:28.239Z,14.20
2022-10-18T03:51:54.663Z,14.24
2022-10-18T03:54:21.099Z,14.27
2022-10-18T03:56:47.428Z,14.27
2022-10-18T03:59:13.870Z,14.27
2022-10-18T04:01:40.289Z,14.27
2022-10-18T04:04:06.694Z,14.28
2022-10-18T04:06:33.053Z,14.30
2022-10-18T04:08:59.418Z,14.26
2022-10-18T04:11:25.773Z,14.25
2022-10-18T04:13:52.213Z,14.26
2022-10-18T04:16:18.563Z,14.26
2022-10-18T04:18:44.953Z,14.30
2022-10-18T04:21:11.297Z,14.26
2022-10-18T04:23:38.880Z,14.28
2022-10-18T04:26:05.689Z,14.25
2022-10-18T04:28:33.420Z,14.20
2022-10-18T04:30:59.926Z,14.25
2022-10-18T04:33:26.368Z,14.20
2022-10-18T04:35:53.480Z,14.19
2022-10-18T04:38:20.080Z,14.14
2022-10-18T04:40:46.790Z,14.15
2022-10-18T04:43:13.160Z,14.13
2022-10-18T04:45:39.617Z,14.10
2022-10-18T04:48:06.673Z,14.05
2022-10-18T04:50:33.120Z,14.03
2022-10-18T04:52:59.501Z,14.01
2022-10-18T04:55:25.974Z,13.99
2022-10-18T04:57:53.017Z,13.99
2022-10-18T05:00:19.496Z,13.91
2022-10-18T05:02:45.885Z,13.80
2022-10-18T05:05:14.062Z,13.70
2022-10-18T05:07:40.846Z,13.53
2022-10-18T05:10:07.990Z,13.58
2022-10-18T05:12:34.754Z,13.55
2022-10-18T05:15:01.292Z,13.46
2022-10-18T05:17:27.674Z,13.41
2022-10-18T05:19:54.037Z,13.41
2022-10-18T05:22:20.420Z,13.36
2022-10-18T05:24:46.860Z,13.30
2022-10-18T05:27:13.219Z,13.23
2022-10-18T05:29:39.647Z,13.16
2022-10-18T05:32:06.058Z,13.09
2022-10-18T05:34:33.006Z,13.18
2022-10-18T05:36:59.908Z,13.18
2022-10-18T05:39:26.361Z,13.19
2022-10-18T05:41:52.705Z,13.13
2022-10-18T05:44:19.193Z,13.21
2022-10-18T05:46:45.557Z,13.20
2022-10-18T05:49:13.255Z,13.21
2022-10-18T05:51:39.597Z,13.21
2022-10-18T05:54:06.144Z,13.21
2022-10-18T05:56:32.966Z,13.14
2022-10-18T05:58:59.322Z,13.14
2022-10-18T06:01:25.701Z,13.18
2022-10-18T06:03:52.152Z,13.07
2022-10-18T06:06:18.603Z,13.02
2022-10-18T06:08:45.005Z,12.99
2022-10-18T06:11:14.595Z,12.93
2022-10-18T06:13:46.152Z,12.94
2022-10-18T06:16:13.829Z,12.93
2022-10-18T06:18:40.912Z,12.85
2022-10-18T06:21:08.193Z,12.87
2022-10-18T06:23:34.867Z,12.87
2022-10-18T06:26:02.892Z,12.76
2022-10-18T06:28:30.052Z,12.74
2022-10-18T06:30:57.802Z,12.71
2022-10-18T06:33:24.597Z,12.76
2022-10-18T06:36:02.921Z,12.79
2022-10-18T06:38:30.475Z,12.71
2022-10-18T06:40:58.236Z,12.66
2022-10-18T06:43:25.398Z,12.74
2022-10-18T06:45:52.715Z,12.74
2022-10-18T06:50:56.964Z,12.72
2022-10-18T06:53:25.003Z,12.73
2022-10-18T06:55:51.535Z,12.74
2022-10-18T06:58:18.411Z,12.75
2022-10-18T07:00:45.985Z,12.73
2022-10-18T07:03:12.401Z,12.81
2022-10-18T07:05:38.902Z,12.94
2022-10-18T07:08:05.298Z,12.93
2022-10-18T07:10:31.649Z,12.99
2022-10-18T07:13:13.662Z,13.15
2022-10-18T07:15:44.413Z,13.09
2022-10-18T07:18:11.059Z,13.08
2022-10-18T07:20:37.436Z,13.13
2022-10-18T07:23:05.553Z,13.16
2022-10-18T07:25:31.907Z,13.12
2022-10-18T07:28:01.248Z,13.18
2022-10-18T07:30:27.620Z,13.32
2022-10-18T07:32:54.133Z,13.30
2022-10-18T07:35:20.504Z,13.31
2022-10-18T07:37:46.907Z,13.36
2022-10-18T07:40:13.295Z,13.46
2022-10-18T07:42:39.697Z,13.61
2022-10-18T07:45:06.934Z,13.74
2022-10-18T07:47:35.216Z,13.74
2022-10-18T07:50:01.915Z,13.80
2022-10-18T07:52:28.297Z,13.90
2022-10-18T07:54:54.681Z,13.91
2022-10-18T07:57:21.051Z,14.09
2022-10-18T07:59:48.305Z,14.04
2022-10-18T08:02:14.667Z,13.97
2022-10-18T08:04:41.578Z,13.98
2022-10-18T08:07:07.939Z,14.18
2022-10-18T08:09:34.298Z,14.41
2022-10-18T08:12:00.729Z,14.36
2022-10-18T08:14:27.093Z,14.52
2022-10-18T08:16:53.485Z,14.81
2022-10-18T08:19:19.868Z,14.93
2022-10-18T08:21:46.191Z,15.00
2022-10-18T08:24:12.527Z,15.01
2022-10-18T08:26:38.897Z,15.00
2022-10-18T08:29:23.012Z,15.18
2022-10-18T08:31:51.355Z,15.60
2022-10-18T08:34:19.809Z,15.90
2022-10-18T08:36:46.459Z,17.05
2022-10-18T08:39:12.790Z,16.80
2022-10-18T08:41:57.586Z,16.35
2022-10-18T08:44:46.957Z,16.44
2022-10-18T08:47:18.690Z,16.63
2022-10-18T08:49:50.396Z,17.03
2022-10-18T08:52:35.586Z,17.46
2022-10-18T08:55:11.988Z,17.99
2022-10-18T08:57:38.377Z,18.59
2022-10-18T09:00:15.579Z,18.76
2022-10-18T09:02:58.207Z,18.96
2022-10-18T09:05:54.633Z,19.32
2022-10-18T09:08:20.920Z,19.56
2022-10-18T09:11:05.978Z,19.71
2022-10-18T09:14:17.811Z,19.81
2022-10-18T09:17:05.704Z,20.42
2022-10-18T09:19:43.662Z,20.73
2022-10-18T09:22:18.128Z,21.06
2022-10-18T09:25:06.268Z,21.37
2022-10-18T09:27:56.710Z,21.42
2022-10-18T09:30:32.925Z,21.90
2022-10-18T09:33:14.415Z,21.68
2022-10-18T09:35:52.238Z,22.01
2022-10-18T09:40:56.449Z,22.11
2022-10-18T09:43:30.320Z,22.33
2022-10-18T09:45:57.481Z,22.36
2022-10-18T09:48:29.226Z,22.45
2022-10-18T09:51:05.385Z,22.54
2022-10-18T09:53:56.680Z,22.86
2022-10-18T09:56:44.802Z,22.66
2022-10-18T09:59:29.800Z,23.24
2022-10-18T10:01:56.563Z,23.34
2022-10-18T10:04:23.020Z,23.35
2022-10-18T10:06:51.042Z,23.17
2022-10-18T10:09:21.466Z,23.41
2022-10-18T10:11:49.842Z,23.64
2022-10-18T10:14:25.501Z,23.81
2022-10-18T10:16:54.717Z,23.78
2022-10-18T10:19:34.655Z,23.74
2022-10-18T10:22:08.287Z,24.33
2022-10-18T10:24:46.856Z,24.48
2022-10-18T10:27:35.113Z,24.52
2022-10-18T10:30:07.071Z,24.68
2022-10-18T10:32:48.259Z,24.78
2022-10-18T10:35:53.924Z,24.82
2022-10-18T10:38:28.745Z,25.12
2022-10-18T10:40:56.000Z,24.75
2022-10-18T10:43:37.535Z,25.41
2022-10-18T10:46:11.690Z,25.16
2022-10-18T10:49:21.653Z,25.12
2022-10-18T10:51:50.596Z,25.09
2022-10-18T10:54:26.497Z,25.47
2022-10-18T10:57:01.080Z,25.70
2022-10-18T10:59:32.095Z,25.53
2022-10-18T11:02:20.579Z,25.76
2022-10-18T11:04:55.042Z,26.21
2022-10-18T11:07:36.823Z,25.92
2022-10-18T11:10:12.458Z,25.81
2022-10-18T11:12:45.065Z,25.91
2022-10-18T11:15:14.435Z,25.60
2022-10-18T11:17:56.102Z,26.52
2022-10-18T11:20:29.529Z,26.63
2022-10-18T11:22:55.814Z,26.58
2022-10-18T11:25:25.524Z,26.82
2022-10-18T11:28:04.327Z,26.61
2022-10-18T11:30:36.857Z,26.64
2022-10-18T11:33:14.239Z,26.58
2022-10-18T11:36:04.617Z,26.49
2022-10-18T11:38:53.793Z,27.17
2022-10-18T11:41:38.287Z,27.41
2022-10-18T11:44:19.203Z,27.28
2022-10-18T11:46:57.676Z,26.96
2022-10-18T11:49:32.983Z,26.73
2022-10-18T11:52:13.673Z,26.28
2022-10-18T11:55:04.648Z,26.63
2022-10-18T11:57:53.010Z,27.31
2022-10-18T12:00:46.176Z,26.62
2022-10-18T12:03:20.290Z,27.07
2022-10-18T12:05:49.801Z,26.69
2022-10-18T12:08:21.378Z,26.84
2022-10-18T12:11:04.701Z,27.33
2022-10-18T12:14:07.006Z,27.29
2022-10-18T12:16:52.250Z,27.11
2022-10-18T12:19:26.942Z,26.74
2022-10-18T12:21:57.534Z,27.10
2022-10-18T12:24:28.504Z,26.57
2022-10-18T12:26:59.502Z,26.69
2022-10-18T12:29:46.682Z,26.61
2022-10-18T12:32:20.479Z,26.50
2022-10-18T12:34:51.866Z,26.58
2022-10-18T12:37:36.816Z,26.03
2022-10-18T12:40:21.902Z,25.95
2022-10-18T12:42:51.271Z,26.13
2022-10-18T12:45:32.219Z,26.45
2022-10-18T12:48:30.737Z,26.29
2022-10-18T12:51:04.210Z,26.24
2022-10-18T12:53:32.007Z,26.01
2022-10-18T12:56:29.557Z,25.88
2022-10-18T12:59:14.497Z,26.36
2022-10-18T13:01:50.469Z,26.02
2022-10-18T13:04:29.468Z,26.36
2022-10-18T13:06:59.481Z,26.37
2022-10-18T13:09:30.360Z,25.95
2022-10-18T13:12:08.898Z,25.31
2022-10-18T13:15:12.462Z,25.34
2022-10-18T13:17:58.538Z,24.85
2022-10-18T13:21:12.084Z,25.48
2022-10-18T13:23:42.419Z,24.84
2022-10-18T13:26:24.278Z,24.51
2022-10-18T13:29:05.572Z,25.05
2022-10-18T13:31:47.292Z,25.08
2022-10-18T13:34:27.636Z,25.18
2022-10-18T13:37:09.014Z,24.93
2022-10-18T13:39:36.986Z,24.98
2022-10-18T13:42:03.325Z,24.80
2022-10-18T13:44:33.239Z,24.74
2022-10-18T13:46:59.528Z,24.51
2022-10-18T13:50:00.610Z,24.47
2022-10-18T13:52:49.664Z,24.09
2022-10-18T13:55:55.860Z,23.87
2022-10-18T13:59:13.164Z,23.87
2022-10-18T14:01:58.781Z,23.81
2022-10-18T14:04:47.546Z,23.76
2022-10-18T14:07:19.141Z,23.42
2022-10-18T14:09:56.174Z,23.13
2022-10-18T14:12:47.585Z,23.24
2022-10-18T14:15:49.151Z,23.14
2022-10-18T14:18:22.715Z,22.62
2022-10-18T14:21:12.342Z,22.70
2022-10-18T14:23:45.037Z,22.41
2022-10-18T14:26:15.096Z,22.29
2022-10-18T14:28:59.040Z,21.75
2022-10-18T14:31:27.233Z,21.60
2022-10-18T14:33:58.368Z,21.49
2022-10-18T14:36:29.369Z,21.15
2022-10-18T14:39:01.201Z,20.92
2022-10-18T14:41:47.307Z,20.69
2022-10-18T14:44:16.731Z,20.71
2022-10-18T14:46:49.451Z,20.59
2022-10-18T14:49:17.294Z,20.31
2022-10-18T14:51:46.692Z,20.18
2022-10-18T14:54:19.578Z,20.08
2022-10-18T14:56:46.411Z,19.79
2022-10-18T14:59:18.903Z,19.76
2022-10-18T15:02:01.255Z,19.52
2022-10-18T15:04:34.922Z,19.47
2022-10-18T15:07:07.164Z,19.38
2022-10-18T15:09:35.805Z,19.13
2022-10-18T15:12:05.536Z,19.03
2022-10-18T15:14:32.298Z,19.14
2022-10-18T15:17:02.676Z,18.96
2022-10-18T15:19:35.603Z,18.75
2022-10-18T15:25:32.115Z,18.58
2022-10-18T15:28:00.602Z,18.54
2022-10-18T15:30:36.149Z,18.40
2022-10-18T15:33:05.084Z,18.43
2022-10-18T15:35:33.790Z,18.48
2022-10-18T15:38:13.099Z,18.30
2022-10-18T15:40:40.779Z,18.23
2022-10-18T15:43:25.867Z,18.28
2022-10-18T15:45:53.349Z,18.03
2022-10-18T15:48:36.462Z,18.07
2022-10-18T15:51:05.115Z,17.81
2022-10-18T15:53:50.301Z,17.75
2022-10-18T15:56:38.011Z,17.72
2022-10-18T15:59:20.474Z,17.66
2022-10-18T16:01:46.999Z,17.58
2022-10-18T16:04:27.184Z,17.59
2022-10-18T16:06:56.048Z,17.23
2022-10-18T16:09:25.116Z,17.24
2022-10-18T16:11:55.815Z,17.13
2022-10-18T16:14:23.316Z,17.08
2022-10-18T16:16:54.157Z,16.88
2022-10-18T16:19:23.930Z,17.01
2022-10-18T16:21:51.901Z,16.86
2022-10-18T16:24:18.683Z,16.74
2022-10-18T16:26:45.538Z,16.76
2022-10-18T16:29:28.475Z,16.61
2022-10-18T16:31:58.003Z,16.45
2022-10-18T16:34:28.020Z,16.30
2022-10-18T16:36:55.229Z,16.17
2022-10-18T16:39:22.311Z,16.06
2022-10-18T16:41:48.718Z,15.89
2022-10-18T16:44:16.478Z,15.80
2022-10-18T16:46:42.853Z,15.66
2022-10-18T16:51:46.345Z,15.52
2022-10-18T16:54:12.809Z,15.52
2022-10-18T16:56:39.571Z,15.42
2022-10-18T16:59:06.012Z,15.27
2022-10-18T17:01:32.468Z,15.37
2022-10-18T17:03:58.901Z,15.17
2022-10-18T17:06:29.318Z,15.12
2022-10-18T17:08:56.772Z,14.95
2022-10-18T17:11:26.367Z,14.95
2022-10-18T17:13:53.110Z,14.66
2022-10-18T17:19:04.798Z,14.56
2022-10-18T17:21:33.533Z,14.68
2022-10-18T17:24:02.948Z,14.67
2022-10-18T17:26:30.166Z,14.48
2022-10-18T17:29:03.047Z,14.50
2022-10-18T17:31:30.559Z,14.51
2022-10-18T17:33:58.760Z,14.53
2022-10-18T17:36:25.773Z,14.35
2022-10-18T17:38:55.721Z,14.42
2022-10-18T17:41:22.330Z,14.50
2022-10-18T17:43:49.390Z,14.16
2022-10-18T17:46:17.684Z,14.16
2022-10-18T17:48:44.413Z,14.10
2022-10-18T17:51:14.005Z,14.01
2022-10-18T17:53:40.502Z,14.08
2022-10-18T17:56:07.802Z,14.18
2022-10-18T17:58:34.760Z,14.11
2022-10-18T18:01:12.905Z,13.97
2022-10-18T18:03:40.531Z,13.89
2022-10-18T18:06:31.278Z,13.82
2022-10-18T18:08:59.812Z,13.71
2022-10-18T18:11:27.272Z,13.75
2022-10-18T18:13:57.531Z,13.74
2022-10-18T18:16:26.876Z,13.74
2022-10-18T18:18:56.281Z,13.64
2022-10-18T18:21:23.275Z,13.59
2022-10-18T18:23:50.520Z,13.57
2022-10-18T18:26:19.087Z,13.58
2022-10-18T18:28:45.658Z,13.67
2022-10-18T18:31:18.351Z,13.39
2022-10-18T18:33:45.114Z,13.54
2022-10-18T18:36:12.589Z,13.53
2022-10-18T18:38:42.556Z,13.47
2022-10-18T18:41:17.937Z,13.43
2022-10-18T18:43:55.230Z,13.52
2022-10-18T18:46:22.726Z,13.38
2022-10-18T18:48:49.751Z,13.39
2022-10-18T18:51:19.026Z,13.50
2022-10-18T18:53:47.039Z,13.34
2022-10-18T18:56:16.290Z,13.37
2022-10-18T18:58:44.130Z,13.17
2022-10-18T19:01:13.686Z,13.34
2022-10-18T19:03:41.559Z,13.23
2022-10-18T19:06:11.596Z,13.09
2022-10-18T19:08:39.980Z,13.25
2022-10-18T19:11:09.205Z,13.24
2022-10-18T19:13:36.022Z,13.23
2022-10-18T19:16:17.681Z,13.01
2022-10-18T19:18:49.127Z,13.05
2022-10-18T19:21:15.526Z,13.02
2022-10-18T19:23:41.895Z,13.00
2022-10-18T19:26:22.805Z,13.02
2022-10-18T19:28:49.193Z,12.92
2022-10-18T19:31:15.554Z,12.82
2022-10-18T19:33:55.593Z,12.88
2022-10-18T19:36:25.236Z,12.84
2022-10-18T19:38:51.647Z,12.82
2022-10-18T19:41:18.078Z,12.72
2022-10-18T19:43:44.467Z,12.54
2022-10-18T19:46:11.476Z,12.68
2022-10-18T19:48:37.892Z,12.58
2022-10-18T19:51:07.083Z,12.65
2022-10-18T19:53:35.714Z,12.61
2022-10-18T19:56:04.283Z,12.65
2022-10-18T19:58:30.716Z,12.59
2022-10-18T20:00:57.800Z,12.63
2022-10-18T20:03:24.778Z,12.59
2022-10-18T20:05:56.429Z,12.51
2022-10-18T20:08:24.140Z,12.42
2022-10-18T20:10:51.177Z,12.49
2022-10-18T20:13:18.286Z,12.38
2022-10-18T20:15:47.788Z,12.37
2022-10-18T20:18:15.227Z,12.36
2022-10-18T20:20:44.577Z,12.36
2022-10-18T20:23:14.699Z,12.38
2022-10-18T20:25:41.073Z,12.26
2022-10-18T20:28:07.504Z,12.22
2022-10-18T20:30:34.094Z,12.19
2022-10-18T20:33:00.481Z,12.02
2022-10-18T20:35:26.851Z,11.94
2022-10-18T20:37:53.196Z,12.15
2022-10-18T20:40:19.626Z,12.04
2022-10-18T20:42:46.006Z,12.18
2022-10-18T20:45:12.405Z,12.18
2022-10-18T20:47:38.827Z,12.17
2022-10-18T20:50:05.580Z,12.17
2022-10-18T20:52:31.950Z,12.05
2022-10-18T20:54:58.274Z,12.04
2022-10-18T20:57:24.633Z,12.08
2022-10-18T20:59:50.971Z,12.11
2022-10-18T21:02:17.386Z,11.94
2022-10-18T21:04:43.776Z,12.05
2022-10-18T21:07:10.116Z,11.84
2022-10-18T21:09:36.463Z,11.96
2022-10-18T21:12:02.922Z,11.94
2022-10-18T21:14:29.358Z,11.96
2022-10-18T21:16:55.742Z,11.92
2022-10-18T21:19:26.513Z,11.95
2022-10-18T21:21:55.718Z,11.94
2022-10-18T21:24:24.083Z,11.90
2022-10-18T21:26:50.522Z,11.72
2022-10-18T21:29:21.864Z,11.73
2022-10-18T21:31:49.154Z,11.71
2022-10-18T21:34:17.380Z,11.69
2022-10-18T21:36:45.768Z,11.66
2022-10-18T21:39:14.871Z,11.61
2022-10-18T21:41:42.182Z,11.52
2022-10-18T21:44:10.706Z,11.60
2022-10-18T21:46:39.162Z,11.54
2022-10-18T21:49:06.234Z,11.46
2022-10-18T21:51:32.593Z,11.59
2022-10-18T21:53:59.152Z,11.50
2022-10-18T21:56:31.294Z,11.59
2022-10-18T21:58:57.934Z,11.49
2022-10-18T22:01:32.143Z,11.41
2022-10-18T22:04:00.003Z,11.39
2022-10-18T22:06:29.548Z,11.50
2022-10-18T22:08:58.270Z,11.37
2022-10-18T22:11:36.738Z,11.43
2022-10-18T22:14:03.184Z,11.42
2022-10-18T22:16:29.595Z,11.38
2022-10-18T22:19:01.422Z,11.31
2022-10-18T22:21:28.868Z,11.32
2022-10-18T22:23:59.741Z,11.18
2022-10-18T22:26:29.055Z,11.27
2022-10-18T22:29:05.025Z,11.27
2022-10-18T22:31:34.173Z,11.32
2022-10-18T22:34:07.203Z,11.29
2022-10-18T22:36:34.549Z,11.06
2022-10-18T22:39:01.679Z,11.02
2022-10-18T22:41:28.321Z,11.08
2022-10-18T22:43:56.390Z,10.98
2022-10-18T22:46:25.969Z,11.00
2022-10-18T22:48:52.815Z,10.96
2022-10-18T22:51:19.275Z,10.89
2022-10-18T22:53:46.144Z,10.82
2022-10-18T22:56:15.984Z,10.79
2022-10-18T22:58:42.511Z,10.79
2022-10-18T23:01:15.377Z,10.67
2022-10-18T23:03:42.300Z,10.81
2022-10-18T23:06:26.643Z,10.60
2022-10-18T23:08:54.607Z,10.80
2022-10-18T23:11:21.481Z,10.60
2022-10-18T23:13:48.225Z,10.62
2022-10-18T23:16:14.700Z,10.41
2022-10-18T23:18:41.353Z,10.47
2022-10-18T23:21:11.811Z,10.49
2022-10-18T23:23:40.491Z,10.57
2022-10-18T23:26:12.947Z,10.59
2022-10-18T23:28:42.064Z,10.56
2022-10-18T23:31:20.456Z,10.29
2022-10-18T23:33:48.943Z,10.47
2022-10-18T23:36:15.641Z,10.46
2022-10-18T23:38:42.307Z,10.46
2022-10-18T23:41:11.633Z,10.35
2022-10-18T23:43:38.749Z,10.47
2022-10-18T23:46:05.458Z,10.37
2022-10-18T23:48:32.108Z,10.44
2022-10-18T23:50:58.477Z,10.41
2022-10-18T23:53:24.878Z,10.45
2022-10-18T23:56:00.798Z,10.39
2022-10-18T23:58:30.045Z,10.50
